sensor_id;sensor_type;location;lat;lon;timestamp;temperature;humidity
57829;DHT22;43657;52.698;6.314;2022-12-16T00:01:52;-1.40;99.90
57829;DHT22;43657;52.698;6.314;2022-12-16T00:04:17;-1.40;99.90
57829;DHT22;43657;52.698;6.314;2022-12-16T00:06:43;-1.40;99.90
57829;DHT22;43657;52.698;6.314;2022-12-16T00:09:08;-1.40;99.90
57829;DHT22;43657;52.698;6.314;2022-12-16T00:11:34;-1.40;99.90
57829;DHT22;43657;52.698;6.314;2022-12-16T00:14:00;-1.30;99.90
57829;DHT22;43657;52.698;6.314;2022-12-16T00:16:25;-1.30;99.90
57829;DHT22;43657;52.698;6.314;2022-12-16T00:18:51;-1.30;99.90
57829;DHT22;43657;52.698;6.314;2022-12-16T00:21:16;-1.20;99.90
57829;DHT22;43657;52.698;6.314;2022-12-16T00:23:45;-1.20;99.90
57829;DHT22;43657;52.698;6.314;2022-12-16T00:26:11;-1.20;99.90
57829;DHT22;43657;52.698;6.314;2022-12-16T00:28:38;-1.10;99.90
57829;DHT22;43657;52.698;6.314;2022-12-16T00:31:04;-1.10;99.90
57829;DHT22;43657;52.698;6.314;2022-12-16T00:33:30;-1.10;99.90
57829;DHT22;43657;52.698;6.314;2022-12-16T00:35:56;-1.10;99.90
57829;DHT22;43657;52.698;6.314;2022-12-16T00:38:23;-1.00;99.90
57829;DHT22;43657;52.698;6.314;2022-12-16T00:40:49;-1.00;99.90
57829;DHT22;43657;52.698;6.314;2022-12-16T00:43:15;-1.00;99.90
57829;DHT22;43657;52.698;6.314;2022-12-16T00:45:41;-1.00;99.90
57829;DHT22;43657;52.698;6.314;2022-12-16T00:48:07;-1.00;99.90
57829;DHT22;43657;52.698;6.314;2022-12-16T00:50:33;-0.90;99.90
57829;DHT22;43657;52.698;6.314;2022-12-16T00:52:59;-0.90;99.90
57829;DHT22;43657;52.698;6.314;2022-12-16T00:55:24;-0.90;99.90
57829;DHT22;43657;52.698;6.314;2022-12-16T00:57:50;-0.90;99.90
57829;DHT22;43657;52.698;6.314;2022-12-16T01:00:17;-0.90;99.90
57829;DHT22;43657;52.698;6.314;2022-12-16T01:02:45;-0.90;99.90
57829;DHT22;43657;52.698;6.314;2022-12-16T01:05:13;-0.90;99.90
57829;DHT22;43657;52.698;6.314;2022-12-16T01:07:40;-0.90;99.90
57829;DHT22;43657;52.698;6.314;2022-12-16T01:10:07;-0.80;99.90
57829;DHT22;43657;52.698;6.314;2022-12-16T01:12:34;-0.80;99.90
57829;DHT22;43657;52.698;6.314;2022-12-16T01:15:00;-0.80;99.90
57829;DHT22;43657;52.698;6.314;2022-12-16T01:17:25;-0.80;99.90
57829;DHT22;43657;52.698;6.314;2022-12-16T01:19:51;-0.80;99.90
57829;DHT22;43657;52.698;6.314;2022-12-16T01:22:18;-0.80;99.90
57829;DHT22;43657;52.698;6.314;2022-12-16T01:24:44;-0.80;99.90
57829;DHT22;43657;52.698;6.314;2022-12-16T01:27:10;-0.80;99.90
57829;DHT22;43657;52.698;6.314;2022-12-16T01:29:36;-0.80;99.90
57829;DHT22;43657;52.698;6.314;2022-12-16T01:32:01;-0.70;99.90
57829;DHT22;43657;52.698;6.314;2022-12-16T01:34:27;-0.70;99.90
57829;DHT22;43657;52.698;6.314;2022-12-16T01:36:53;-0.80;99.90
57829;DHT22;43657;52.698;6.314;2022-12-16T01:39:18;-0.80;99.90
57829;DHT22;43657;52.698;6.314;2022-12-16T01:41:44;-0.70;99.90
57829;DHT22;43657;52.698;6.314;2022-12-16T01:44:24;-0.70;99.90
57829;DHT22;43657;52.698;6.314;2022-12-16T01:46:55;-0.70;99.90
57829;DHT22;43657;52.698;6.314;2022-12-16T01:49:43;-0.70;99.90
57829;DHT22;43657;52.698;6.314;2022-12-16T01:52:17;-0.70;99.90
57829;DHT22;43657;52.698;6.314;2022-12-16T01:54:49;-0.70;99.90
57829;DHT22;43657;52.698;6.314;2022-12-16T01:57:23;-0.70;99.90
57829;DHT22;43657;52.698;6.314;2022-12-16T01:59:52;-0.70;99.90
57829;DHT22;43657;52.698;6.314;2022-12-16T02:02:20;-0.70;99.90
57829;DHT22;43657;52.698;6.314;2022-12-16T02:04:46;-0.70;99.90
57829;DHT22;43657;52.698;6.314;2022-12-16T02:10:17;-0.70;99.90
57829;DHT22;43657;52.698;6.314;2022-12-16T02:13:17;-0.70;99.90
57829;DHT22;43657;52.698;6.314;2022-12-16T02:15:55;-0.70;99.90
57829;DHT22;43657;52.698;6.314;2022-12-16T02:19:01;-0.70;99.90
57829;DHT22;43657;52.698;6.314;2022-12-16T02:35:48;-0.70;99.90
57829;DHT22;43657;52.698;6.314;2022-12-16T02:46:10;-0.70;99.90
57829;DHT22;43657;52.698;6.314;2022-12-16T02:48:36;-0.70;99.90
57829;DHT22;43657;52.698;6.314;2022-12-16T02:51:02;-0.70;99.90
57829;DHT22;43657;52.698;6.314;2022-12-16T02:53:28;-0.70;99.90
57829;DHT22;43657;52.698;6.314;2022-12-16T02:56:08;-0.70;99.90
57829;DHT22;43657;52.698;6.314;2022-12-16T02:59:04;-0.70;99.90
57829;DHT22;43657;52.698;6.314;2022-12-16T03:06:34;-0.60;99.90
57829;DHT22;43657;52.698;6.314;2022-12-16T03:09:04;-0.70;99.90
57829;DHT22;43657;52.698;6.314;2022-12-16T03:11:31;-0.60;99.90
57829;DHT22;43657;52.698;6.314;2022-12-16T03:13:58;-0.70;99.90
57829;DHT22;43657;52.698;6.314;2022-12-16T03:16:29;-0.60;99.90
57829;DHT22;43657;52.698;6.314;2022-12-16T03:18:58;-0.60;99.90
57829;DHT22;43657;52.698;6.314;2022-12-16T03:21:29;-0.70;99.90
57829;DHT22;43657;52.698;6.314;2022-12-16T03:24:07;-0.70;99.90
57829;DHT22;43657;52.698;6.314;2022-12-16T03:26:38;-0.60;99.90
57829;DHT22;43657;52.698;6.314;2022-12-16T03:29:12;-0.70;99.90
57829;DHT22;43657;52.698;6.314;2022-12-16T03:31:46;-0.70;99.90
57829;DHT22;43657;52.698;6.314;2022-12-16T03:34:23;-0.60;99.90
57829;DHT22;43657;52.698;6.314;2022-12-16T03:36:53;-0.60;99.90
57829;DHT22;43657;52.698;6.314;2022-12-16T03:39:21;-0.70;99.90
57829;DHT22;43657;52.698;6.314;2022-12-16T03:41:51;-0.60;99.90
57829;DHT22;43657;52.698;6.314;2022-12-16T03:44:21;-0.60;99.90
57829;DHT22;43657;52.698;6.314;2022-12-16T03:46:47;-0.60;99.90
57829;DHT22;43657;52.698;6.314;2022-12-16T03:49:13;-0.60;99.90
57829;DHT22;43657;52.698;6.314;2022-12-16T03:51:39;-0.60;99.90
57829;DHT22;43657;52.698;6.314;2022-12-16T03:54:04;-0.60;99.90
57829;DHT22;43657;52.698;6.314;2022-12-16T03:56:31;-0.60;99.90
57829;DHT22;43657;52.698;6.314;2022-12-16T03:58:56;-0.60;99.90
57829;DHT22;43657;52.698;6.314;2022-12-16T04:01:22;-0.60;99.90
57829;DHT22;43657;52.698;6.314;2022-12-16T04:03:48;-0.70;99.90
57829;DHT22;43657;52.698;6.314;2022-12-16T04:06:14;-0.70;99.90
57829;DHT22;43657;52.698;6.314;2022-12-16T04:08:44;-0.70;99.90
57829;DHT22;43657;52.698;6.314;2022-12-16T04:11:11;-0.70;99.90
57829;DHT22;43657;52.698;6.314;2022-12-16T04:13:56;-0.60;99.90
57829;DHT22;43657;52.698;6.314;2022-12-16T04:16:40;-0.70;99.90
57829;DHT22;43657;52.698;6.314;2022-12-16T04:19:30;-0.70;99.90
57829;DHT22;43657;52.698;6.314;2022-12-16T04:22:21;-0.60;99.90
57829;DHT22;43657;52.698;6.314;2022-12-16T04:25:11;-0.60;99.90
57829;DHT22;43657;52.698;6.314;2022-12-16T04:27:38;-0.70;99.90
57829;DHT22;43657;52.698;6.314;2022-12-16T04:30:04;-0.70;99.90
57829;DHT22;43657;52.698;6.314;2022-12-16T04:33:10;-0.70;99.90
57829;DHT22;43657;52.698;6.314;2022-12-16T04:35:54;-0.70;99.90
57829;DHT22;43657;52.698;6.314;2022-12-16T04:38:38;-0.70;99.90
57829;DHT22;43657;52.698;6.314;2022-12-16T04:41:22;-0.70;99.90
57829;DHT22;43657;52.698;6.314;2022-12-16T04:44:06;-0.70;99.90
57829;DHT22;43657;52.698;6.314;2022-12-16T04:46:50;-0.80;99.90
57829;DHT22;43657;52.698;6.314;2022-12-16T04:49:35;-0.80;99.90
57829;DHT22;43657;52.698;6.314;2022-12-16T04:52:19;-0.80;99.90
57829;DHT22;43657;52.698;6.314;2022-12-16T04:55:04;-0.70;99.90
57829;DHT22;43657;52.698;6.314;2022-12-16T04:57:54;-0.80;99.90
57829;DHT22;43657;52.698;6.314;2022-12-16T05:00:39;-0.70;99.90
57829;DHT22;43657;52.698;6.314;2022-12-16T05:03:24;-0.80;99.90
57829;DHT22;43657;52.698;6.314;2022-12-16T05:06:08;-0.70;99.90
57829;DHT22;43657;52.698;6.314;2022-12-16T05:08:52;-0.80;99.90
57829;DHT22;43657;52.698;6.314;2022-12-16T05:11:36;-0.90;99.90
57829;DHT22;43657;52.698;6.314;2022-12-16T05:14:21;-0.90;99.90
57829;DHT22;43657;52.698;6.314;2022-12-16T05:17:05;-0.90;99.90
57829;DHT22;43657;52.698;6.314;2022-12-16T05:19:49;-1.00;99.90
57829;DHT22;43657;52.698;6.314;2022-12-16T05:22:33;-1.10;99.90
57829;DHT22;43657;52.698;6.314;2022-12-16T05:25:17;-1.10;99.90
57829;DHT22;43657;52.698;6.314;2022-12-16T05:28:01;-1.20;99.90
57829;DHT22;43657;52.698;6.314;2022-12-16T05:30:45;-1.20;99.90
57829;DHT22;43657;52.698;6.314;2022-12-16T05:33:29;-1.30;99.90
57829;DHT22;43657;52.698;6.314;2022-12-16T05:36:13;-1.30;99.90
57829;DHT22;43657;52.698;6.314;2022-12-16T05:38:57;-1.40;99.90
57829;DHT22;43657;52.698;6.314;2022-12-16T05:41:42;-1.40;99.90
57829;DHT22;43657;52.698;6.314;2022-12-16T05:44:26;-1.50;99.90
57829;DHT22;43657;52.698;6.314;2022-12-16T05:47:11;-1.60;99.90
57829;DHT22;43657;52.698;6.314;2022-12-16T05:49:55;-1.60;99.90
57829;DHT22;43657;52.698;6.314;2022-12-16T05:52:39;-1.60;99.90
57829;DHT22;43657;52.698;6.314;2022-12-16T05:55:23;-1.70;99.90
57829;DHT22;43657;52.698;6.314;2022-12-16T05:58:07;-1.70;99.90
57829;DHT22;43657;52.698;6.314;2022-12-16T06:00:52;-1.80;99.90
57829;DHT22;43657;52.698;6.314;2022-12-16T06:03:36;-1.80;99.90
57829;DHT22;43657;52.698;6.314;2022-12-16T06:06:21;-1.80;99.90
57829;DHT22;43657;52.698;6.314;2022-12-16T06:09:05;-1.80;99.90
57829;DHT22;43657;52.698;6.314;2022-12-16T06:11:50;-1.70;99.90
57829;DHT22;43657;52.698;6.314;2022-12-16T06:14:34;-1.70;99.90
57829;DHT22;43657;52.698;6.314;2022-12-16T06:17:19;-1.70;99.90
57829;DHT22;43657;52.698;6.314;2022-12-16T06:20:04;-1.70;99.90
57829;DHT22;43657;52.698;6.314;2022-12-16T06:22:52;-1.70;99.90
57829;DHT22;43657;52.698;6.314;2022-12-16T06:25:37;-1.60;99.90
57829;DHT22;43657;52.698;6.314;2022-12-16T06:28:21;-1.60;99.90
57829;DHT22;43657;52.698;6.314;2022-12-16T06:31:05;-1.50;99.90
57829;DHT22;43657;52.698;6.314;2022-12-16T06:33:49;-1.40;99.90
57829;DHT22;43657;52.698;6.314;2022-12-16T06:36:33;-1.40;99.90
57829;DHT22;43657;52.698;6.314;2022-12-16T06:39:17;-1.30;99.90
57829;DHT22;43657;52.698;6.314;2022-12-16T06:42:01;-1.20;99.90
57829;DHT22;43657;52.698;6.314;2022-12-16T06:44:45;-1.20;99.90
57829;DHT22;43657;52.698;6.314;2022-12-16T06:47:30;-1.10;99.90
57829;DHT22;43657;52.698;6.314;2022-12-16T06:50:14;-1.10;99.90
57829;DHT22;43657;52.698;6.314;2022-12-16T06:52:58;-1.00;99.90
57829;DHT22;43657;52.698;6.314;2022-12-16T06:55:42;-1.00;99.90
57829;DHT22;43657;52.698;6.314;2022-12-16T06:58:26;-0.90;99.90
57829;DHT22;43657;52.698;6.314;2022-12-16T07:01:10;-0.90;99.90
57829;DHT22;43657;52.698;6.314;2022-12-16T07:03:54;-0.80;99.90
57829;DHT22;43657;52.698;6.314;2022-12-16T07:06:38;-0.80;99.90
57829;DHT22;43657;52.698;6.314;2022-12-16T07:09:22;-0.80;99.90
57829;DHT22;43657;52.698;6.314;2022-12-16T07:12:06;-0.70;99.90
57829;DHT22;43657;52.698;6.314;2022-12-16T07:14:51;-0.70;99.90
57829;DHT22;43657;52.698;6.314;2022-12-16T07:17:35;-0.60;99.90
57829;DHT22;43657;52.698;6.314;2022-12-16T07:20:19;-0.60;99.90
57829;DHT22;43657;52.698;6.314;2022-12-16T07:23:03;-0.60;99.90
57829;DHT22;43657;52.698;6.314;2022-12-16T07:25:48;-0.50;99.90
57829;DHT22;43657;52.698;6.314;2022-12-16T07:28:32;-0.50;99.90
57829;DHT22;43657;52.698;6.314;2022-12-16T07:31:16;-0.50;99.90
57829;DHT22;43657;52.698;6.314;2022-12-16T07:34:01;-0.50;99.90
57829;DHT22;43657;52.698;6.314;2022-12-16T07:36:44;-0.40;99.90
57829;DHT22;43657;52.698;6.314;2022-12-16T07:39:29;-0.40;99.90
57829;DHT22;43657;52.698;6.314;2022-12-16T07:42:13;-0.40;99.90
57829;DHT22;43657;52.698;6.314;2022-12-16T07:44:57;-0.30;99.90
57829;DHT22;43657;52.698;6.314;2022-12-16T07:47:50;-0.30;99.90
57829;DHT22;43657;52.698;6.314;2022-12-16T07:50:35;-0.30;99.90
57829;DHT22;43657;52.698;6.314;2022-12-16T07:53:21;-0.20;99.90
57829;DHT22;43657;52.698;6.314;2022-12-16T07:56:05;-0.20;99.90
57829;DHT22;43657;52.698;6.314;2022-12-16T07:58:50;-0.20;99.90
57829;DHT22;43657;52.698;6.314;2022-12-16T08:01:34;-0.20;99.90
57829;DHT22;43657;52.698;6.314;2022-12-16T08:04:18;-0.10;99.90
57829;DHT22;43657;52.698;6.314;2022-12-16T08:07:02;-0.10;99.90
57829;DHT22;43657;52.698;6.314;2022-12-16T08:09:47;-0.10;99.90
57829;DHT22;43657;52.698;6.314;2022-12-16T08:12:31;0.00;99.90
57829;DHT22;43657;52.698;6.314;2022-12-16T08:15:17;0.00;99.90
57829;DHT22;43657;52.698;6.314;2022-12-16T08:18:02;0.00;99.90
57829;DHT22;43657;52.698;6.314;2022-12-16T08:20:46;0.10;99.90
57829;DHT22;43657;52.698;6.314;2022-12-16T08:23:30;0.10;99.90
57829;DHT22;43657;52.698;6.314;2022-12-16T08:26:14;0.20;99.90
57829;DHT22;43657;52.698;6.314;2022-12-16T08:28:59;0.20;99.90
57829;DHT22;43657;52.698;6.314;2022-12-16T08:31:43;0.20;99.90
57829;DHT22;43657;52.698;6.314;2022-12-16T08:34:27;0.30;99.90
57829;DHT22;43657;52.698;6.314;2022-12-16T08:37:11;0.30;99.90
57829;DHT22;43657;52.698;6.314;2022-12-16T08:39:55;0.40;99.90
57829;DHT22;43657;52.698;6.314;2022-12-16T08:42:40;0.40;99.90
57829;DHT22;43657;52.698;6.314;2022-12-16T08:45:24;0.40;99.90
57829;DHT22;43657;52.698;6.314;2022-12-16T08:48:09;0.40;99.90
57829;DHT22;43657;52.698;6.314;2022-12-16T08:50:52;0.40;99.90
57829;DHT22;43657;52.698;6.314;2022-12-16T08:53:37;0.40;99.90
57829;DHT22;43657;52.698;6.314;2022-12-16T08:56:21;0.40;99.90
57829;DHT22;43657;52.698;6.314;2022-12-16T08:59:05;0.40;99.90
57829;DHT22;43657;52.698;6.314;2022-12-16T09:01:49;0.40;99.90
57829;DHT22;43657;52.698;6.314;2022-12-16T09:04:33;0.40;99.90
57829;DHT22;43657;52.698;6.314;2022-12-16T09:07:17;0.40;99.90
57829;DHT22;43657;52.698;6.314;2022-12-16T09:10:02;0.40;99.90
57829;DHT22;43657;52.698;6.314;2022-12-16T09:12:46;0.40;99.90
57829;DHT22;43657;52.698;6.314;2022-12-16T09:15:30;0.40;99.90
57829;DHT22;43657;52.698;6.314;2022-12-16T09:18:14;0.40;99.90
57829;DHT22;43657;52.698;6.314;2022-12-16T09:20:59;0.40;99.90
57829;DHT22;43657;52.698;6.314;2022-12-16T09:23:43;0.40;99.90
57829;DHT22;43657;52.698;6.314;2022-12-16T09:26:28;0.40;99.90
57829;DHT22;43657;52.698;6.314;2022-12-16T09:29:12;0.40;99.90
57829;DHT22;43657;52.698;6.314;2022-12-16T09:31:56;0.40;99.90
57829;DHT22;43657;52.698;6.314;2022-12-16T09:34:40;0.40;99.90
57829;DHT22;43657;52.698;6.314;2022-12-16T09:37:24;0.40;99.90
57829;DHT22;43657;52.698;6.314;2022-12-16T09:40:13;0.30;99.90
57829;DHT22;43657;52.698;6.314;2022-12-16T09:46:29;0.40;99.90
57829;DHT22;43657;52.698;6.314;2022-12-16T09:49:33;0.40;99.90
57829;DHT22;43657;52.698;6.314;2022-12-16T09:52:20;0.40;99.90
57829;DHT22;43657;52.698;6.314;2022-12-16T09:55:17;0.40;99.90
57829;DHT22;43657;52.698;6.314;2022-12-16T09:58:03;0.40;99.90
57829;DHT22;43657;52.698;6.314;2022-12-16T10:00:48;0.40;99.90
57829;DHT22;43657;52.698;6.314;2022-12-16T10:03:37;0.40;99.90
57829;DHT22;43657;52.698;6.314;2022-12-16T10:12:19;0.40;99.90
57829;DHT22;43657;52.698;6.314;2022-12-16T10:17:58;0.40;99.90
57829;DHT22;43657;52.698;6.314;2022-12-16T10:20:50;0.30;99.90
57829;DHT22;43657;52.698;6.314;2022-12-16T10:23:48;0.30;99.90
57829;DHT22;43657;52.698;6.314;2022-12-16T10:27:05;0.40;99.90
57829;DHT22;43657;52.698;6.314;2022-12-16T10:29:53;0.40;99.90
57829;DHT22;43657;52.698;6.314;2022-12-16T10:32:41;0.40;99.90
57829;DHT22;43657;52.698;6.314;2022-12-16T10:35:28;0.40;99.90
57829;DHT22;43657;52.698;6.314;2022-12-16T10:41:16;0.30;99.90
57829;DHT22;43657;52.698;6.314;2022-12-16T10:44:05;0.40;99.90
57829;DHT22;43657;52.698;6.314;2022-12-16T10:46:53;0.40;99.90
57829;DHT22;43657;52.698;6.314;2022-12-16T10:49:37;0.40;99.90
57829;DHT22;43657;52.698;6.314;2022-12-16T10:52:21;0.30;99.90
57829;DHT22;43657;52.698;6.314;2022-12-16T11:00:54;0.40;99.90
57829;DHT22;43657;52.698;6.314;2022-12-16T11:03:39;0.40;99.90
57829;DHT22;43657;52.698;6.314;2022-12-16T11:06:27;0.40;99.90
57829;DHT22;43657;52.698;6.314;2022-12-16T11:09:30;0.40;99.90
57829;DHT22;43657;52.698;6.314;2022-12-16T11:12:29;0.40;99.90
57829;DHT22;43657;52.698;6.314;2022-12-16T11:15:23;0.40;99.90
57829;DHT22;43657;52.698;6.314;2022-12-16T11:18:13;0.40;99.90
57829;DHT22;43657;52.698;6.314;2022-12-16T11:24:16;0.40;99.90
57829;DHT22;43657;52.698;6.314;2022-12-16T11:27:09;0.40;99.90
57829;DHT22;43657;52.698;6.314;2022-12-16T11:29:58;0.40;99.90
57829;DHT22;43657;52.698;6.314;2022-12-16T11:32:54;0.30;99.90
57829;DHT22;43657;52.698;6.314;2022-12-16T11:35:43;0.40;99.90
57829;DHT22;43657;52.698;6.314;2022-12-16T11:38:46;0.40;99.90
57829;DHT22;43657;52.698;6.314;2022-12-16T11:41:40;0.40;99.90
57829;DHT22;43657;52.698;6.314;2022-12-16T11:47:44;0.40;99.90
57829;DHT22;43657;52.698;6.314;2022-12-16T11:50:28;0.40;99.90
57829;DHT22;43657;52.698;6.314;2022-12-16T11:56:23;0.30;99.90
57829;DHT22;43657;52.698;6.314;2022-12-16T11:59:32;0.30;99.90
57829;DHT22;43657;52.698;6.314;2022-12-16T12:02:46;0.30;99.90
57829;DHT22;43657;52.698;6.314;2022-12-16T12:05:45;0.30;99.90
57829;DHT22;43657;52.698;6.314;2022-12-16T12:11:35;0.30;99.90
57829;DHT22;43657;52.698;6.314;2022-12-16T12:14:42;0.30;99.90
57829;DHT22;43657;52.698;6.314;2022-12-16T12:17:37;0.30;99.90
57829;DHT22;43657;52.698;6.314;2022-12-16T12:23:36;0.30;99.90
57829;DHT22;43657;52.698;6.314;2022-12-16T12:26:30;0.40;99.90
57829;DHT22;43657;52.698;6.314;2022-12-16T12:29:26;0.40;99.90
57829;DHT22;43657;52.698;6.314;2022-12-16T12:33:06;0.40;99.90
57829;DHT22;43657;52.698;6.314;2022-12-16T12:35:48;0.40;99.90
57829;DHT22;43657;52.698;6.314;2022-12-16T12:41:53;0.30;99.90
57829;DHT22;43657;52.698;6.314;2022-12-16T12:47:44;0.30;99.90
57829;DHT22;43657;52.698;6.314;2022-12-16T12:50:52;0.30;99.90
57829;DHT22;43657;52.698;6.314;2022-12-16T12:53:50;0.30;99.90
57829;DHT22;43657;52.698;6.314;2022-12-16T12:56:48;0.30;99.90
57829;DHT22;43657;52.698;6.314;2022-12-16T13:00:05;0.30;99.90
57829;DHT22;43657;52.698;6.314;2022-12-16T13:06:17;0.30;99.90
57829;DHT22;43657;52.698;6.314;2022-12-16T13:09:03;0.30;99.90
57829;DHT22;43657;52.698;6.314;2022-12-16T13:20:50;0.30;99.90
57829;DHT22;43657;52.698;6.314;2022-12-16T13:23:41;0.30;99.90
57829;DHT22;43657;52.698;6.314;2022-12-16T13:26:28;0.30;99.90
57829;DHT22;43657;52.698;6.314;2022-12-16T13:38:02;0.20;99.90
57829;DHT22;43657;52.698;6.314;2022-12-16T13:44:06;0.20;99.90
57829;DHT22;43657;52.698;6.314;2022-12-16T13:46:53;0.30;99.90
57829;DHT22;43657;52.698;6.314;2022-12-16T13:52:42;0.30;99.90
57829;DHT22;43657;52.698;6.314;2022-12-16T14:01:21;0.30;99.90
57829;DHT22;43657;52.698;6.314;2022-12-16T14:04:09;0.30;99.90
57829;DHT22;43657;52.698;6.314;2022-12-16T14:06:58;0.30;99.90
57829;DHT22;43657;52.698;6.314;2022-12-16T14:09:47;0.30;99.90
57829;DHT22;43657;52.698;6.314;2022-12-16T14:12:51;0.30;99.90
57829;DHT22;43657;52.698;6.314;2022-12-16T14:15:59;0.30;99.90
57829;DHT22;43657;52.698;6.314;2022-12-16T14:21:56;0.30;99.90
57829;DHT22;43657;52.698;6.314;2022-12-16T14:24:43;0.30;99.90
57829;DHT22;43657;52.698;6.314;2022-12-16T14:27:28;0.30;99.90
57829;DHT22;43657;52.698;6.314;2022-12-16T14:30:21;0.30;99.90
57829;DHT22;43657;52.698;6.314;2022-12-16T14:33:35;0.30;99.90
57829;DHT22;43657;52.698;6.314;2022-12-16T14:36:24;0.30;99.90
57829;DHT22;43657;52.698;6.314;2022-12-16T14:39:11;0.30;99.90
57829;DHT22;43657;52.698;6.314;2022-12-16T14:41:56;0.20;99.90
57829;DHT22;43657;52.698;6.314;2022-12-16T14:44:43;0.20;99.90
57829;DHT22;43657;52.698;6.314;2022-12-16T14:47:29;0.30;99.90
57829;DHT22;43657;52.698;6.314;2022-12-16T14:50:24;0.20;99.90
57829;DHT22;43657;52.698;6.314;2022-12-16T14:53:18;0.20;99.90
57829;DHT22;43657;52.698;6.314;2022-12-16T14:56:19;0.20;99.90
57829;DHT22;43657;52.698;6.314;2022-12-16T14:59:08;0.20;99.90
57829;DHT22;43657;52.698;6.314;2022-12-16T15:01:54;0.20;99.90
57829;DHT22;43657;52.698;6.314;2022-12-16T15:04:41;0.20;99.90
57829;DHT22;43657;52.698;6.314;2022-12-16T15:07:28;0.20;99.90
57829;DHT22;43657;52.698;6.314;2022-12-16T15:10:16;0.20;99.90
57829;DHT22;43657;52.698;6.314;2022-12-16T15:13:00;0.20;99.90
57829;DHT22;43657;52.698;6.314;2022-12-16T15:15:46;0.20;99.90
57829;DHT22;43657;52.698;6.314;2022-12-16T15:18:37;0.20;99.90
57829;DHT22;43657;52.698;6.314;2022-12-16T15:21:22;0.10;99.90
57829;DHT22;43657;52.698;6.314;2022-12-16T15:24:15;0.20;99.90
57829;DHT22;43657;52.698;6.314;2022-12-16T15:30:02;0.10;99.90
57829;DHT22;43657;52.698;6.314;2022-12-16T15:32:52;0.10;99.90
57829;DHT22;43657;52.698;6.314;2022-12-16T15:35:37;0.10;99.90
57829;DHT22;43657;52.698;6.314;2022-12-16T15:38:34;0.10;99.90
57829;DHT22;43657;52.698;6.314;2022-12-16T15:41:36;0.10;99.90
57829;DHT22;43657;52.698;6.314;2022-12-16T15:44:23;0.10;99.90
57829;DHT22;43657;52.698;6.314;2022-12-16T15:50:12;0.00;99.90
57829;DHT22;43657;52.698;6.314;2022-12-16T15:53:30;0.00;99.90
57829;DHT22;43657;52.698;6.314;2022-12-16T15:56:26;0.00;99.90
57829;DHT22;43657;52.698;6.314;2022-12-16T15:59:26;0.00;99.90
57829;DHT22;43657;52.698;6.314;2022-12-16T16:02:26;0.00;99.90
57829;DHT22;43657;52.698;6.314;2022-12-16T16:07:58;0.00;99.90
57829;DHT22;43657;52.698;6.314;2022-12-16T16:10:43;0.00;99.90
57829;DHT22;43657;52.698;6.314;2022-12-16T16:13:27;0.00;99.90
57829;DHT22;43657;52.698;6.314;2022-12-16T16:16:13;0.00;99.90
57829;DHT22;43657;52.698;6.314;2022-12-16T16:18:57;0.10;99.90
57829;DHT22;43657;52.698;6.314;2022-12-16T16:21:41;0.00;99.90
57829;DHT22;43657;52.698;6.314;2022-12-16T16:24:26;0.10;99.90
57829;DHT22;43657;52.698;6.314;2022-12-16T16:27:12;0.00;99.90
57829;DHT22;43657;52.698;6.314;2022-12-16T16:29:57;0.10;99.90
57829;DHT22;43657;52.698;6.314;2022-12-16T16:32:42;0.10;99.90
57829;DHT22;43657;52.698;6.314;2022-12-16T16:35:27;0.10;99.90
57829;DHT22;43657;52.698;6.314;2022-12-16T16:38:11;0.00;99.90
57829;DHT22;43657;52.698;6.314;2022-12-16T16:40:56;0.00;99.90
57829;DHT22;43657;52.698;6.314;2022-12-16T16:43:40;0.10;99.90
57829;DHT22;43657;52.698;6.314;2022-12-16T16:46:37;0.00;99.90
57829;DHT22;43657;52.698;6.314;2022-12-16T16:49:33;0.10;99.90
57829;DHT22;43657;52.698;6.314;2022-12-16T16:52:20;0.00;99.90
57829;DHT22;43657;52.698;6.314;2022-12-16T16:55:13;0.10;99.90
57829;DHT22;43657;52.698;6.314;2022-12-16T16:57:57;0.00;99.90
57829;DHT22;43657;52.698;6.314;2022-12-16T17:00:41;0.00;99.90
57829;DHT22;43657;52.698;6.314;2022-12-16T17:03:43;0.00;99.90
57829;DHT22;43657;52.698;6.314;2022-12-16T17:06:27;0.00;99.90
57829;DHT22;43657;52.698;6.314;2022-12-16T17:09:11;0.00;99.90
57829;DHT22;43657;52.698;6.314;2022-12-16T17:12:01;-0.10;99.90
57829;DHT22;43657;52.698;6.314;2022-12-16T17:14:55;-0.10;99.90
57829;DHT22;43657;52.698;6.314;2022-12-16T17:17:39;-0.10;99.90
57829;DHT22;43657;52.698;6.314;2022-12-16T17:20:29;-0.10;99.90
57829;DHT22;43657;52.698;6.314;2022-12-16T17:23:13;-0.10;99.90
57829;DHT22;43657;52.698;6.314;2022-12-16T17:26:03;-0.10;99.90
57829;DHT22;43657;52.698;6.314;2022-12-16T17:28:47;-0.10;99.90
57829;DHT22;43657;52.698;6.314;2022-12-16T17:31:31;-0.10;99.90
57829;DHT22;43657;52.698;6.314;2022-12-16T17:34:15;-0.20;99.90
57829;DHT22;43657;52.698;6.314;2022-12-16T17:37:03;-0.10;99.90
57829;DHT22;43657;52.698;6.314;2022-12-16T17:39:47;-0.20;99.90
57829;DHT22;43657;52.698;6.314;2022-12-16T17:42:37;-0.20;99.90
57829;DHT22;43657;52.698;6.314;2022-12-16T17:45:24;-0.20;99.90
57829;DHT22;43657;52.698;6.314;2022-12-16T17:48:11;-0.10;99.90
57829;DHT22;43657;52.698;6.314;2022-12-16T17:51:01;-0.20;99.90
57829;DHT22;43657;52.698;6.314;2022-12-16T17:53:46;-0.20;99.90
57829;DHT22;43657;52.698;6.314;2022-12-16T17:56:33;-0.20;99.90
57829;DHT22;43657;52.698;6.314;2022-12-16T17:59:54;-0.20;99.90
57829;DHT22;43657;52.698;6.314;2022-12-16T18:03:05;-0.10;99.90
57829;DHT22;43657;52.698;6.314;2022-12-16T18:06:02;-0.20;99.90
57829;DHT22;43657;52.698;6.314;2022-12-16T18:09:14;-0.20;99.90
57829;DHT22;43657;52.698;6.314;2022-12-16T18:12:01;-0.20;99.90
57829;DHT22;43657;52.698;6.314;2022-12-16T18:14:45;-0.20;99.90
57829;DHT22;43657;52.698;6.314;2022-12-16T18:17:35;-0.20;99.90
57829;DHT22;43657;52.698;6.314;2022-12-16T18:20:29;-0.20;99.90
57829;DHT22;43657;52.698;6.314;2022-12-16T18:23:29;-0.20;99.90
57829;DHT22;43657;52.698;6.314;2022-12-16T18:26:14;-0.10;99.90
57829;DHT22;43657;52.698;6.314;2022-12-16T18:29:06;-0.10;99.90
57829;DHT22;43657;52.698;6.314;2022-12-16T18:32:00;-0.20;99.90
57829;DHT22;43657;52.698;6.314;2022-12-16T18:34:56;-0.20;99.90
57829;DHT22;43657;52.698;6.314;2022-12-16T18:37:46;-0.20;99.90
57829;DHT22;43657;52.698;6.314;2022-12-16T18:40:43;-0.20;99.90
57829;DHT22;43657;52.698;6.314;2022-12-16T18:47:01;-0.20;99.90
57829;DHT22;43657;52.698;6.314;2022-12-16T18:49:58;-0.20;99.90
57829;DHT22;43657;52.698;6.314;2022-12-16T18:52:52;-0.20;99.90
57829;DHT22;43657;52.698;6.314;2022-12-16T18:56:09;-0.20;99.90
57829;DHT22;43657;52.698;6.314;2022-12-16T18:59:02;-0.20;99.90
57829;DHT22;43657;52.698;6.314;2022-12-16T19:01:59;-0.20;99.90
57829;DHT22;43657;52.698;6.314;2022-12-16T19:04:43;-0.20;99.90
57829;DHT22;43657;52.698;6.314;2022-12-16T19:07:27;-0.20;99.90
57829;DHT22;43657;52.698;6.314;2022-12-16T19:10:14;-0.10;99.90
57829;DHT22;43657;52.698;6.314;2022-12-16T19:13:01;-0.20;99.90
57829;DHT22;43657;52.698;6.314;2022-12-16T19:15:54;-0.20;99.90
57829;DHT22;43657;52.698;6.314;2022-12-16T19:18:38;-0.30;99.90
57829;DHT22;43657;52.698;6.314;2022-12-16T19:21:22;-0.30;99.90
57829;DHT22;43657;52.698;6.314;2022-12-16T19:24:06;-0.30;99.90
57829;DHT22;43657;52.698;6.314;2022-12-16T19:26:53;-0.40;99.90